sensor_id;sensor_type;location;lat;lon;timestamp;temperature;humidity
37530;DHT22;23374;52.758;6.872;2022-12-20T00:01:40;9.70;82.30
37530;DHT22;23374;52.758;6.872;2022-12-20T00:04:03;9.70;60.60
37530;DHT22;23374;52.758;6.872;2022-12-20T00:06:28;9.60;79.70
37530;DHT22;23374;52.758;6.872;2022-12-20T00:09:00;9.60;94.00
37530;DHT22;23374;52.758;6.872;2022-12-20T00:11:24;9.60;96.40
37530;DHT22;23374;52.758;6.872;2022-12-20T00:13:46;9.60;97.20
37530;DHT22;23374;52.758;6.872;2022-12-20T00:16:18;9.60;99.90
37530;DHT22;23374;52.758;6.872;2022-12-20T00:18:42;9.60;99.90
37530;DHT22;23374;52.758;6.872;2022-12-20T00:21:06;9.60;99.90
37530;DHT22;23374;52.758;6.872;2022-12-20T00:23:27;9.60;99.90
37530;DHT22;23374;52.758;6.872;2022-12-20T00:25:51;9.70;99.90
37530;DHT22;23374;52.758;6.872;2022-12-20T00:28:11;9.70;96.50
37530;DHT22;23374;52.758;6.872;2022-12-20T00:30:32;9.60;99.80
37530;DHT22;23374;52.758;6.872;2022-12-20T00:32:52;9.70;99.90
37530;DHT22;23374;52.758;6.872;2022-12-20T00:35:12;9.70;99.90
37530;DHT22;23374;52.758;6.872;2022-12-20T00:37:33;9.70;99.90
37530;DHT22;23374;52.758;6.872;2022-12-20T00:39:53;9.70;99.90
37530;DHT22;23374;52.758;6.872;2022-12-20T00:42:13;9.80;99.90
37530;DHT22;23374;52.758;6.872;2022-12-20T00:44:35;9.80;98.00
37530;DHT22;23374;52.758;6.872;2022-12-20T00:46:55;9.80;99.90
37530;DHT22;23374;52.758;6.872;2022-12-20T00:49:15;9.80;99.90
37530;DHT22;23374;52.758;6.872;2022-12-20T00:51:35;9.80;99.90
37530;DHT22;23374;52.758;6.872;2022-12-20T00:53:55;9.90;99.90
37530;DHT22;23374;52.758;6.872;2022-12-20T00:56:17;9.90;99.90
37530;DHT22;23374;52.758;6.872;2022-12-20T00:58:40;9.90;95.50
37530;DHT22;23374;52.758;6.872;2022-12-20T01:01:01;9.90;99.90
37530;DHT22;23374;52.758;6.872;2022-12-20T01:03:23;9.90;97.80
37530;DHT22;23374;52.758;6.872;2022-12-20T01:05:56;9.90;99.90
37530;DHT22;23374;52.758;6.872;2022-12-20T01:08:17;9.80;99.90
37530;DHT22;23374;52.758;6.872;2022-12-20T01:10:38;9.90;96.80
37530;DHT22;23374;52.758;6.872;2022-12-20T01:12:58;9.90;99.90
37530;DHT22;23374;52.758;6.872;2022-12-20T01:15:19;9.90;95.20
37530;DHT22;23374;52.758;6.872;2022-12-20T01:17:40;9.90;93.50
37530;DHT22;23374;52.758;6.872;2022-12-20T01:20:02;9.90;97.50
37530;DHT22;23374;52.758;6.872;2022-12-20T01:22:22;9.90;99.90
37530;DHT22;23374;52.758;6.872;2022-12-20T01:24:43;9.90;98.80
37530;DHT22;23374;52.758;6.872;2022-12-20T01:27:03;9.90;94.50
37530;DHT22;23374;52.758;6.872;2022-12-20T01:29:24;10.00;81.80
37530;DHT22;23374;52.758;6.872;2022-12-20T01:31:44;10.00;75.00
37530;DHT22;23374;52.758;6.872;2022-12-20T01:34:05;10.00;73.40
37530;DHT22;23374;52.758;6.872;2022-12-20T01:36:33;10.00;90.20
37530;DHT22;23374;52.758;6.872;2022-12-20T01:38:59;10.00;62.80
37530;DHT22;23374;52.758;6.872;2022-12-20T01:41:21;10.00;75.80
37530;DHT22;23374;52.758;6.872;2022-12-20T01:44:48;10.00;66.90
37530;DHT22;23374;52.758;6.872;2022-12-20T01:47:10;10.00;56.80
37530;DHT22;23374;52.758;6.872;2022-12-20T01:49:38;10.00;93.30
37530;DHT22;23374;52.758;6.872;2022-12-20T01:52:09;10.00;78.70
37530;DHT22;23374;52.758;6.872;2022-12-20T01:54:44;10.00;68.60
37530;DHT22;23374;52.758;6.872;2022-12-20T01:57:15;10.00;96.90
37530;DHT22;23374;52.758;6.872;2022-12-20T01:59:39;10.00;74.50
37530;DHT22;23374;52.758;6.872;2022-12-20T02:02:03;10.00;82.50
37530;DHT22;23374;52.758;6.872;2022-12-20T02:04:26;10.00;72.00
37530;DHT22;23374;52.758;6.872;2022-12-20T02:06:46;10.00;62.50
37530;DHT22;23374;52.758;6.872;2022-12-20T02:09:07;10.00;70.20
37530;DHT22;23374;52.758;6.872;2022-12-20T02:12:00;10.10;72.90
37530;DHT22;23374;52.758;6.872;2022-12-20T02:16:25;10.10;39.80
37530;DHT22;23374;52.758;6.872;2022-12-20T02:19:24;10.20;19.30
37530;DHT22;23374;52.758;6.872;2022-12-20T02:22:55;10.20;20.00
37530;DHT22;23374;52.758;6.872;2022-12-20T02:30:03;10.20;18.70
37530;DHT22;23374;52.758;6.872;2022-12-20T02:32:43;10.20;38.80
37530;DHT22;23374;52.758;6.872;2022-12-20T02:35:10;10.10;54.90
37530;DHT22;23374;52.758;6.872;2022-12-20T02:37:32;10.20;78.50
37530;DHT22;23374;52.758;6.872;2022-12-20T02:39:52;10.20;70.30
37530;DHT22;23374;52.758;6.872;2022-12-20T02:42:15;10.20;67.90
37530;DHT22;23374;52.758;6.872;2022-12-20T02:44:45;10.20;79.30
37530;DHT22;23374;52.758;6.872;2022-12-20T02:48:11;10.20;92.80
37530;DHT22;23374;52.758;6.872;2022-12-20T02:50:45;10.20;91.80
37530;DHT22;23374;52.758;6.872;2022-12-20T02:53:07;10.20;90.50
37530;DHT22;23374;52.758;6.872;2022-12-20T02:55:44;10.20;93.60
37530;DHT22;23374;52.758;6.872;2022-12-20T02:58:17;10.20;93.70
37530;DHT22;23374;52.758;6.872;2022-12-20T03:00:45;10.20;98.10
37530;DHT22;23374;52.758;6.872;2022-12-20T03:03:08;10.20;92.90
37530;DHT22;23374;52.758;6.872;2022-12-20T03:05:46;10.20;99.90
37530;DHT22;23374;52.758;6.872;2022-12-20T03:08:08;10.20;96.50
37530;DHT22;23374;52.758;6.872;2022-12-20T03:10:29;10.20;99.90
37530;DHT22;23374;52.758;6.872;2022-12-20T03:12:49;10.20;99.90
37530;DHT22;23374;52.758;6.872;2022-12-20T03:15:10;10.20;99.90
37530;DHT22;23374;52.758;6.872;2022-12-20T03:17:30;10.10;99.90
37530;DHT22;23374;52.758;6.872;2022-12-20T03:19:51;10.20;99.90
37530;DHT22;23374;52.758;6.872;2022-12-20T03:22:11;10.20;99.90
37530;DHT22;23374;52.758;6.872;2022-12-20T03:24:31;10.20;99.90
37530;DHT22;23374;52.758;6.872;2022-12-20T03:26:52;10.20;99.90
37530;DHT22;23374;52.758;6.872;2022-12-20T03:29:12;10.10;99.90
37530;DHT22;23374;52.758;6.872;2022-12-20T03:31:33;10.10;99.90
37530;DHT22;23374;52.758;6.872;2022-12-20T03:33:54;10.10;99.90
37530;DHT22;23374;52.758;6.872;2022-12-20T03:36:14;10.10;99.90
37530;DHT22;23374;52.758;6.872;2022-12-20T03:38:35;10.00;99.90
37530;DHT22;23374;52.758;6.872;2022-12-20T03:40:56;10.00;99.90
37530;DHT22;23374;52.758;6.872;2022-12-20T03:43:16;9.90;99.90
37530;DHT22;23374;52.758;6.872;2022-12-20T03:45:36;10.00;99.90
37530;DHT22;23374;52.758;6.872;2022-12-20T03:47:56;10.00;99.90
37530;DHT22;23374;52.758;6.872;2022-12-20T03:50:17;9.90;99.90
37530;DHT22;23374;52.758;6.872;2022-12-20T03:52:37;9.90;99.90
37530;DHT22;23374;52.758;6.872;2022-12-20T03:54:59;9.90;99.90
37530;DHT22;23374;52.758;6.872;2022-12-20T03:57:19;9.90;99.90
37530;DHT22;23374;52.758;6.872;2022-12-20T03:59:40;9.90;99.90
37530;DHT22;23374;52.758;6.872;2022-12-20T04:02:02;9.90;99.90
37530;DHT22;23374;52.758;6.872;2022-12-20T04:04:23;9.80;99.90
37530;DHT22;23374;52.758;6.872;2022-12-20T04:06:43;9.90;99.90
37530;DHT22;23374;52.758;6.872;2022-12-20T04:09:04;9.80;99.90
37530;DHT22;23374;52.758;6.872;2022-12-20T04:11:24;9.80;99.90
37530;DHT22;23374;52.758;6.872;2022-12-20T04:13:50;9.90;99.90
37530;DHT22;23374;52.758;6.872;2022-12-20T04:16:12;9.90;99.90
37530;DHT22;23374;52.758;6.872;2022-12-20T04:18:33;9.90;99.90
37530;DHT22;23374;52.758;6.872;2022-12-20T04:20:54;9.90;99.90
37530;DHT22;23374;52.758;6.872;2022-12-20T04:23:14;9.90;99.90
37530;DHT22;23374;52.758;6.872;2022-12-20T04:25:34;9.90;99.90
37530;DHT22;23374;52.758;6.872;2022-12-20T04:27:55;9.90;99.90
37530;DHT22;23374;52.758;6.872;2022-12-20T04:30:15;9.90;99.90
37530;DHT22;23374;52.758;6.872;2022-12-20T04:32:36;9.90;99.90
37530;DHT22;23374;52.758;6.872;2022-12-20T04:34:56;9.90;99.90
37530;DHT22;23374;52.758;6.872;2022-12-20T04:37:17;9.90;99.90
37530;DHT22;23374;52.758;6.872;2022-12-20T04:39:37;9.90;99.90
37530;DHT22;23374;52.758;6.872;2022-12-20T04:41:57;9.90;99.90
37530;DHT22;23374;52.758;6.872;2022-12-20T04:44:18;9.90;99.90
37530;DHT22;23374;52.758;6.872;2022-12-20T04:46:38;9.90;99.90
37530;DHT22;23374;52.758;6.872;2022-12-20T04:48:58;9.90;99.90
37530;DHT22;23374;52.758;6.872;2022-12-20T04:51:18;9.90;99.90
37530;DHT22;23374;52.758;6.872;2022-12-20T04:53:39;9.90;99.90
37530;DHT22;23374;52.758;6.872;2022-12-20T04:56:08;9.90;99.90
37530;DHT22;23374;52.758;6.872;2022-12-20T04:58:29;9.90;99.90
37530;DHT22;23374;52.758;6.872;2022-12-20T05:00:50;10.00;99.90
37530;DHT22;23374;52.758;6.872;2022-12-20T05:03:14;9.90;99.90
37530;DHT22;23374;52.758;6.872;2022-12-20T05:05:34;10.00;99.90
37530;DHT22;23374;52.758;6.872;2022-12-20T05:07:54;10.00;99.90
37530;DHT22;23374;52.758;6.872;2022-12-20T05:10:15;10.10;99.90
37530;DHT22;23374;52.758;6.872;2022-12-20T05:12:36;10.10;99.90
37530;DHT22;23374;52.758;6.872;2022-12-20T05:14:56;10.10;99.90
37530;DHT22;23374;52.758;6.872;2022-12-20T05:17:16;10.10;99.90
37530;DHT22;23374;52.758;6.872;2022-12-20T05:19:37;10.20;99.90
37530;DHT22;23374;52.758;6.872;2022-12-20T05:21:57;10.20;99.90
37530;DHT22;23374;52.758;6.872;2022-12-20T05:24:36;10.30;99.90
37530;DHT22;23374;52.758;6.872;2022-12-20T05:27:15;10.30;99.90
37530;DHT22;23374;52.758;6.872;2022-12-20T05:29:35;10.30;99.90
37530;DHT22;23374;52.758;6.872;2022-12-20T05:31:55;10.40;99.90
37530;DHT22;23374;52.758;6.872;2022-12-20T05:34:16;10.40;99.90
37530;DHT22;23374;52.758;6.872;2022-12-20T05:36:37;10.50;99.90
37530;DHT22;23374;52.758;6.872;2022-12-20T05:38:58;10.50;99.90
37530;DHT22;23374;52.758;6.872;2022-12-20T05:41:18;10.50;99.90
37530;DHT22;23374;52.758;6.872;2022-12-20T05:43:38;10.50;99.90
37530;DHT22;23374;52.758;6.872;2022-12-20T05:46:00;10.60;99.90
37530;DHT22;23374;52.758;6.872;2022-12-20T05:48:20;10.60;99.90
37530;DHT22;23374;52.758;6.872;2022-12-20T05:50:41;10.70;99.90
37530;DHT22;23374;52.758;6.872;2022-12-20T05:53:03;10.70;99.90
37530;DHT22;23374;52.758;6.872;2022-12-20T05:55:23;10.60;99.90
37530;DHT22;23374;52.758;6.872;2022-12-20T05:57:44;10.70;99.90
37530;DHT22;23374;52.758;6.872;2022-12-20T06:00:06;10.70;99.90
37530;DHT22;23374;52.758;6.872;2022-12-20T06:02:27;10.70;99.90
37530;DHT22;23374;52.758;6.872;2022-12-20T06:04:47;10.70;99.90
37530;DHT22;23374;52.758;6.872;2022-12-20T06:07:07;10.70;99.90
37530;DHT22;23374;52.758;6.872;2022-12-20T06:09:27;10.60;99.90
37530;DHT22;23374;52.758;6.872;2022-12-20T06:11:49;10.60;99.90
37530;DHT22;23374;52.758;6.872;2022-12-20T06:14:09;10.60;99.90
37530;DHT22;23374;52.758;6.872;2022-12-20T06:16:29;10.60;99.90
37530;DHT22;23374;52.758;6.872;2022-12-20T06:18:50;10.60;99.90
37530;DHT22;23374;52.758;6.872;2022-12-20T06:21:10;10.60;99.90
37530;DHT22;23374;52.758;6.872;2022-12-20T06:23:30;10.60;99.90
37530;DHT22;23374;52.758;6.872;2022-12-20T06:25:51;10.60;99.90
37530;DHT22;23374;52.758;6.872;2022-12-20T06:28:12;10.60;99.90
37530;DHT22;23374;52.758;6.872;2022-12-20T06:30:33;10.70;99.90
37530;DHT22;23374;52.758;6.872;2022-12-20T06:32:54;10.70;99.90
37530;DHT22;23374;52.758;6.872;2022-12-20T06:35:14;10.70;99.90
37530;DHT22;23374;52.758;6.872;2022-12-20T06:37:34;10.70;99.90
37530;DHT22;23374;52.758;6.872;2022-12-20T06:39:55;10.70;99.90
37530;DHT22;23374;52.758;6.872;2022-12-20T06:42:15;10.70;99.90
37530;DHT22;23374;52.758;6.872;2022-12-20T06:44:35;10.70;99.90
37530;DHT22;23374;52.758;6.872;2022-12-20T06:46:57;10.70;99.90
37530;DHT22;23374;52.758;6.872;2022-12-20T06:49:17;10.70;99.90
37530;DHT22;23374;52.758;6.872;2022-12-20T06:51:37;10.60;99.90
37530;DHT22;23374;52.758;6.872;2022-12-20T06:53:57;10.60;99.90
37530;DHT22;23374;52.758;6.872;2022-12-20T06:56:18;10.60;99.90
37530;DHT22;23374;52.758;6.872;2022-12-20T06:58:39;10.60;99.90
37530;DHT22;23374;52.758;6.872;2022-12-20T07:00:59;10.60;99.90
37530;DHT22;23374;52.758;6.872;2022-12-20T07:03:19;10.50;99.90
37530;DHT22;23374;52.758;6.872;2022-12-20T07:05:40;10.50;99.90
37530;DHT22;23374;52.758;6.872;2022-12-20T07:08:00;10.50;99.90
37530;DHT22;23374;52.758;6.872;2022-12-20T07:10:23;10.50;99.90
37530;DHT22;23374;52.758;6.872;2022-12-20T07:12:43;10.40;99.90
37530;DHT22;23374;52.758;6.872;2022-12-20T07:15:04;10.40;99.90
37530;DHT22;23374;52.758;6.872;2022-12-20T07:17:25;10.40;99.90
37530;DHT22;23374;52.758;6.872;2022-12-20T07:19:46;10.40;99.90
37530;DHT22;23374;52.758;6.872;2022-12-20T07:22:06;10.50;99.90
37530;DHT22;23374;52.758;6.872;2022-12-20T07:24:27;10.50;99.90
37530;DHT22;23374;52.758;6.872;2022-12-20T07:26:47;10.50;99.90
37530;DHT22;23374;52.758;6.872;2022-12-20T07:29:07;10.50;99.90
37530;DHT22;23374;52.758;6.872;2022-12-20T07:31:27;10.50;99.90
37530;DHT22;23374;52.758;6.872;2022-12-20T07:33:48;10.40;99.90
37530;DHT22;23374;52.758;6.872;2022-12-20T07:36:13;10.40;99.90
37530;DHT22;23374;52.758;6.872;2022-12-20T07:38:35;10.40;99.90
37530;DHT22;23374;52.758;6.872;2022-12-20T07:40:56;10.40;99.90
37530;DHT22;23374;52.758;6.872;2022-12-20T07:43:16;10.40;99.90
37530;DHT22;23374;52.758;6.872;2022-12-20T07:45:36;10.40;99.90
37530;DHT22;23374;52.758;6.872;2022-12-20T07:47:57;10.40;99.90
37530;DHT22;23374;52.758;6.872;2022-12-20T07:50:17;10.30;99.90
37530;DHT22;23374;52.758;6.872;2022-12-20T07:52:40;10.40;99.90
37530;DHT22;23374;52.758;6.872;2022-12-20T07:55:05;10.30;99.90
37530;DHT22;23374;52.758;6.872;2022-12-20T07:57:57;10.40;99.90
37530;DHT22;23374;52.758;6.872;2022-12-20T08:00:21;10.40;99.90
37530;DHT22;23374;52.758;6.872;2022-12-20T08:02:50;10.40;99.90
37530;DHT22;23374;52.758;6.872;2022-12-20T08:05:11;10.40;99.90
37530;DHT22;23374;52.758;6.872;2022-12-20T08:07:33;10.50;99.90
37530;DHT22;23374;52.758;6.872;2022-12-20T08:09:54;10.40;99.90
37530;DHT22;23374;52.758;6.872;2022-12-20T08:12:16;10.50;99.90
37530;DHT22;23374;52.758;6.872;2022-12-20T08:14:38;10.50;99.90
37530;DHT22;23374;52.758;6.872;2022-12-20T08:16:58;10.50;99.90
37530;DHT22;23374;52.758;6.872;2022-12-20T08:19:19;10.60;99.90
37530;DHT22;23374;52.758;6.872;2022-12-20T08:21:40;10.60;99.90
37530;DHT22;23374;52.758;6.872;2022-12-20T08:24:00;10.60;99.90
37530;DHT22;23374;52.758;6.872;2022-12-20T08:26:20;10.60;99.90
37530;DHT22;23374;52.758;6.872;2022-12-20T08:28:40;10.70;99.90
37530;DHT22;23374;52.758;6.872;2022-12-20T08:31:07;10.70;99.90
37530;DHT22;23374;52.758;6.872;2022-12-20T08:33:28;10.80;99.90
37530;DHT22;23374;52.758;6.872;2022-12-20T08:35:57;10.80;99.90
37530;DHT22;23374;52.758;6.872;2022-12-20T08:38:17;10.80;99.90
37530;DHT22;23374;52.758;6.872;2022-12-20T08:40:37;10.80;99.90
37530;DHT22;23374;52.758;6.872;2022-12-20T08:42:58;10.90;99.90
37530;DHT22;23374;52.758;6.872;2022-12-20T08:45:19;10.90;99.90
37530;DHT22;23374;52.758;6.872;2022-12-20T08:47:40;10.90;99.90
37530;DHT22;23374;52.758;6.872;2022-12-20T08:50:00;10.90;99.90
37530;DHT22;23374;52.758;6.872;2022-12-20T08:52:21;10.90;99.90
37530;DHT22;23374;52.758;6.872;2022-12-20T08:54:41;10.90;99.90
37530;DHT22;23374;52.758;6.872;2022-12-20T08:57:01;10.90;99.90
37530;DHT22;23374;52.758;6.872;2022-12-20T08:59:23;11.00;99.90
37530;DHT22;23374;52.758;6.872;2022-12-20T09:01:43;10.90;99.90
37530;DHT22;23374;52.758;6.872;2022-12-20T09:04:04;11.00;99.90
37530;DHT22;23374;52.758;6.872;2022-12-20T09:06:24;11.00;99.90
37530;DHT22;23374;52.758;6.872;2022-12-20T09:08:46;11.00;99.90
37530;DHT22;23374;52.758;6.872;2022-12-20T09:11:17;11.00;99.90
37530;DHT22;23374;52.758;6.872;2022-12-20T09:13:39;11.10;99.90
37530;DHT22;23374;52.758;6.872;2022-12-20T09:16:05;11.10;99.90
37530;DHT22;23374;52.758;6.872;2022-12-20T09:18:26;11.10;99.90
37530;DHT22;23374;52.758;6.872;2022-12-20T09:20:46;11.10;99.90
37530;DHT22;23374;52.758;6.872;2022-12-20T09:23:07;11.10;99.90
37530;DHT22;23374;52.758;6.872;2022-12-20T09:25:27;11.10;99.90
37530;DHT22;23374;52.758;6.872;2022-12-20T09:27:48;11.00;99.90
37530;DHT22;23374;52.758;6.872;2022-12-20T09:30:09;11.00;99.90
37530;DHT22;23374;52.758;6.872;2022-12-20T09:32:30;11.10;99.90
37530;DHT22;23374;52.758;6.872;2022-12-20T09:34:50;11.10;99.90
37530;DHT22;23374;52.758;6.872;2022-12-20T09:37:11;11.10;99.90
37530;DHT22;23374;52.758;6.872;2022-12-20T09:39:32;11.10;99.90
37530;DHT22;23374;52.758;6.872;2022-12-20T09:41:52;11.10;99.90
37530;DHT22;23374;52.758;6.872;2022-12-20T09:44:23;11.10;99.90
37530;DHT22;23374;52.758;6.872;2022-12-20T09:46:46;11.10;92.20
37530;DHT22;23374;52.758;6.872;2022-12-20T09:49:15;11.10;95.90
37530;DHT22;23374;52.758;6.872;2022-12-20T09:52:24;11.10;99.90
37530;DHT22;23374;52.758;6.872;2022-12-20T10:04:55;11.00;89.00
37530;DHT22;23374;52.758;6.872;2022-12-20T10:07:54;10.90;99.90
37530;DHT22;23374;52.758;6.872;2022-12-20T10:26:22;10.50;99.90
37530;DHT22;23374;52.758;6.872;2022-12-20T10:28:42;10.40;99.90
37530;DHT22;23374;52.758;6.872;2022-12-20T10:31:10;10.40;99.90
37530;DHT22;23374;52.758;6.872;2022-12-20T10:33:31;10.30;99.90
37530;DHT22;23374;52.758;6.872;2022-12-20T10:35:51;10.30;99.90
37530;DHT22;23374;52.758;6.872;2022-12-20T10:38:14;10.30;99.90
37530;DHT22;23374;52.758;6.872;2022-12-20T10:48:34;10.30;99.90
37530;DHT22;23374;52.758;6.872;2022-12-20T10:51:24;10.30;99.90
37530;DHT22;23374;52.758;6.872;2022-12-20T10:54:00;10.20;99.90
37530;DHT22;23374;52.758;6.872;2022-12-20T10:56:33;10.20;99.90
37530;DHT22;23374;52.758;6.872;2022-12-20T10:58:59;10.20;99.90
37530;DHT22;23374;52.758;6.872;2022-12-20T11:01:21;10.20;99.90
37530;DHT22;23374;52.758;6.872;2022-12-20T11:05:37;10.20;99.90
37530;DHT22;23374;52.758;6.872;2022-12-20T11:08:12;10.30;99.90
37530;DHT22;23374;52.758;6.872;2022-12-20T11:10:34;10.30;99.90
37530;DHT22;23374;52.758;6.872;2022-12-20T11:13:00;10.30;99.90
37530;DHT22;23374;52.758;6.872;2022-12-20T11:15:30;10.30;99.90
37530;DHT22;23374;52.758;6.872;2022-12-20T11:17:54;10.30;99.90
37530;DHT22;23374;52.758;6.872;2022-12-20T11:25:22;10.40;99.90
37530;DHT22;23374;52.758;6.872;2022-12-20T11:34:47;10.40;99.90
37530;DHT22;23374;52.758;6.872;2022-12-20T11:37:26;10.30;99.90
37530;DHT22;23374;52.758;6.872;2022-12-20T11:44:48;10.30;99.90
37530;DHT22;23374;52.758;6.872;2022-12-20T11:48:03;10.30;99.90
37530;DHT22;23374;52.758;6.872;2022-12-20T11:51:16;10.30;99.90
37530;DHT22;23374;52.758;6.872;2022-12-20T11:56:46;10.30;99.90
37530;DHT22;23374;52.758;6.872;2022-12-20T12:01:07;10.30;99.90
37530;DHT22;23374;52.758;6.872;2022-12-20T12:03:35;10.20;99.90
37530;DHT22;23374;52.758;6.872;2022-12-20T12:06:11;10.20;99.90
37530;DHT22;23374;52.758;6.872;2022-12-20T12:09:27;10.20;99.90
37530;DHT22;23374;52.758;6.872;2022-12-20T12:12:02;10.20;99.90
37530;DHT22;23374;52.758;6.872;2022-12-20T12:15:33;10.20;99.90
37530;DHT22;23374;52.758;6.872;2022-12-20T12:18:21;10.20;99.90
37530;DHT22;23374;52.758;6.872;2022-12-20T12:22:19;10.20;99.90
37530;DHT22;23374;52.758;6.872;2022-12-20T12:24:47;10.20;99.90
37530;DHT22;23374;52.758;6.872;2022-12-20T12:27:25;10.20;99.90
37530;DHT22;23374;52.758;6.872;2022-12-20T12:29:45;10.20;99.90
37530;DHT22;23374;52.758;6.872;2022-12-20T12:32:28;10.20;99.90
37530;DHT22;23374;52.758;6.872;2022-12-20T12:43:45;10.20;99.90
37530;DHT22;23374;52.758;6.872;2022-12-20T12:46:31;10.20;99.90
37530;DHT22;23374;52.758;6.872;2022-12-20T12:49:16;10.30;99.90
37530;DHT22;23374;52.758;6.872;2022-12-20T12:51:41;10.20;99.90
37530;DHT22;23374;52.758;6.872;2022-12-20T12:54:27;10.30;99.90
37530;DHT22;23374;52.758;6.872;2022-12-20T12:56:52;10.30;99.90
37530;DHT22;23374;52.758;6.872;2022-12-20T12:59:49;10.30;99.90
37530;DHT22;23374;52.758;6.872;2022-12-20T13:02:32;10.30;99.90
37530;DHT22;23374;52.758;6.872;2022-12-20T13:07:03;10.30;99.90
37530;DHT22;23374;52.758;6.872;2022-12-20T13:09:44;10.30;99.90
37530;DHT22;23374;52.758;6.872;2022-12-20T13:12:58;10.30;99.90
37530;DHT22;23374;52.758;6.872;2022-12-20T13:16:09;10.30;99.90
37530;DHT22;23374;52.758;6.872;2022-12-20T13:18:30;10.30;99.90
37530;DHT22;23374;52.758;6.872;2022-12-20T13:21:31;10.30;99.90
37530;DHT22;23374;52.758;6.872;2022-12-20T13:25:18;10.30;99.90
37530;DHT22;23374;52.758;6.872;2022-12-20T13:27:46;10.30;99.90
37530;DHT22;23374;52.758;6.872;2022-12-20T13:30:27;10.30;99.90
37530;DHT22;23374;52.758;6.872;2022-12-20T13:33:17;10.30;99.90
37530;DHT22;23374;52.758;6.872;2022-12-20T13:35:59;10.30;99.90
37530;DHT22;23374;52.758;6.872;2022-12-20T13:40:59;10.30;99.90
37530;DHT22;23374;52.758;6.872;2022-12-20T13:43:29;10.30;99.90
37530;DHT22;23374;52.758;6.872;2022-12-20T13:46:14;10.30;99.90
37530;DHT22;23374;52.758;6.872;2022-12-20T13:48:54;10.30;99.90
37530;DHT22;23374;52.758;6.872;2022-12-20T13:51:22;10.30;99.90
37530;DHT22;23374;52.758;6.872;2022-12-20T13:54:02;10.30;99.90
37530;DHT22;23374;52.758;6.872;2022-12-20T13:56:48;10.30;99.90
37530;DHT22;23374;52.758;6.872;2022-12-20T13:59:29;10.30;99.90
37530;DHT22;23374;52.758;6.872;2022-12-20T14:02:00;10.30;99.90
37530;DHT22;23374;52.758;6.872;2022-12-20T14:04:24;10.30;99.90
37530;DHT22;23374;52.758;6.872;2022-12-20T14:06:56;10.30;99.90
37530;DHT22;23374;52.758;6.872;2022-12-20T14:09:35;10.30;99.90
37530;DHT22;23374;52.758;6.872;2022-12-20T14:12:30;10.40;99.90
37530;DHT22;23374;52.758;6.872;2022-12-20T14:14:50;10.40;99.90
37530;DHT22;23374;52.758;6.872;2022-12-20T14:17:44;10.40;99.90
37530;DHT22;23374;52.758;6.872;2022-12-20T14:20:18;10.40;99.90
37530;DHT22;23374;52.758;6.872;2022-12-20T14:23:18;10.40;99.90
37530;DHT22;23374;52.758;6.872;2022-12-20T14:26:17;10.40;99.90
37530;DHT22;23374;52.758;6.872;2022-12-20T14:28:47;10.40;99.90
37530;DHT22;23374;52.758;6.872;2022-12-20T14:34:46;10.40;99.90
37530;DHT22;23374;52.758;6.872;2022-12-20T14:38:22;10.40;99.90
37530;DHT22;23374;52.758;6.872;2022-12-20T14:40:44;10.40;99.90
37530;DHT22;23374;52.758;6.872;2022-12-20T14:43:15;10.40;99.90
37530;DHT22;23374;52.758;6.872;2022-12-20T14:45:36;10.40;99.90
37530;DHT22;23374;52.758;6.872;2022-12-20T14:48:02;10.40;99.90
37530;DHT22;23374;52.758;6.872;2022-12-20T14:50:35;10.40;99.90
37530;DHT22;23374;52.758;6.872;2022-12-20T14:52:56;10.40;99.90
37530;DHT22;23374;52.758;6.872;2022-12-20T14:58:43;10.40;99.90
37530;DHT22;23374;52.758;6.872;2022-12-20T15:01:24;10.40;99.90
37530;DHT22;23374;52.758;6.872;2022-12-20T15:03:53;10.50;99.90
37530;DHT22;23374;52.758;6.872;2022-12-20T15:06:38;10.50;99.90
37530;DHT22;23374;52.758;6.872;2022-12-20T15:09:00;10.50;99.90
37530;DHT22;23374;52.758;6.872;2022-12-20T15:11:22;10.50;99.90
37530;DHT22;23374;52.758;6.872;2022-12-20T15:13:45;10.50;99.90
37530;DHT22;23374;52.758;6.872;2022-12-20T15:16:24;10.50;99.90
37530;DHT22;23374;52.758;6.872;2022-12-20T15:18:51;10.50;99.90
37530;DHT22;23374;52.758;6.872;2022-12-20T15:21:28;10.50;99.90
37530;DHT22;23374;52.758;6.872;2022-12-20T15:23:53;10.50;99.90
37530;DHT22;23374;52.758;6.872;2022-12-20T15:26:16;10.50;99.90
37530;DHT22;23374;52.758;6.872;2022-12-20T15:28:37;10.50;99.90
37530;DHT22;23374;52.758;6.872;2022-12-20T15:30:58;10.50;99.90
37530;DHT22;23374;52.758;6.872;2022-12-20T15:33:25;10.50;99.90
37530;DHT22;23374;52.758;6.872;2022-12-20T15:35:46;10.50;99.90
37530;DHT22;23374;52.758;6.872;2022-12-20T15:38:16;10.50;99.90
37530;DHT22;23374;52.758;6.872;2022-12-20T15:40:38;10.50;99.90
37530;DHT22;23374;52.758;6.872;2022-12-20T15:42:59;10.50;99.90
37530;DHT22;23374;52.758;6.872;2022-12-20T15:45:20;10.50;99.90
37530;DHT22;23374;52.758;6.872;2022-12-20T15:47:41;10.50;99.90
37530;DHT22;23374;52.758;6.872;2022-12-20T15:50:02;10.50;99.90
37530;DHT22;23374;52.758;6.872;2022-12-20T15:52:23;10.50;99.90
37530;DHT22;23374;52.758;6.872;2022-12-20T15:54:44;10.50;99.90
37530;DHT22;23374;52.758;6.872;2022-12-20T15:57:08;10.50;99.90
37530;DHT22;23374;52.758;6.872;2022-12-20T15:59:30;10.50;99.90
37530;DHT22;23374;52.758;6.872;2022-12-20T16:01:51;10.50;99.90
37530;DHT22;23374;52.758;6.872;2022-12-20T16:04:17;10.50;99.90
37530;DHT22;23374;52.758;6.872;2022-12-20T16:06:38;10.50;99.90
37530;DHT22;23374;52.758;6.872;2022-12-20T16:08:58;10.50;99.90
37530;DHT22;23374;52.758;6.872;2022-12-20T16:11:28;10.50;99.90
37530;DHT22;23374;52.758;6.872;2022-12-20T16:13:49;10.50;99.90
37530;DHT22;23374;52.758;6.872;2022-12-20T16:16:27;10.50;99.90
37530;DHT22;23374;52.758;6.872;2022-12-20T16:18:48;10.50;99.90
37530;DHT22;23374;52.758;6.872;2022-12-20T16:21:26;10.50;99.90
37530;DHT22;23374;52.758;6.872;2022-12-20T16:23:48;10.50;99.90
37530;DHT22;23374;52.758;6.872;2022-12-20T16:26:17;10.50;99.90
37530;DHT22;23374;52.758;6.872;2022-12-20T16:28:42;10.50;99.90
37530;DHT22;23374;52.758;6.872;2022-12-20T16:31:34;10.50;99.90
37530;DHT22;23374;52.758;6.872;2022-12-20T16:33:57;10.50;99.90
37530;DHT22;23374;52.758;6.872;2022-12-20T16:36:18;10.50;99.90
37530;DHT22;23374;52.758;6.872;2022-12-20T16:38:38;10.50;99.90
37530;DHT22;23374;52.758;6.872;2022-12-20T16:41:10;10.50;99.90
37530;DHT22;23374;52.758;6.872;2022-12-20T16:43:31;10.60;99.90
37530;DHT22;23374;52.758;6.872;2022-12-20T16:45:51;10.60;99.90
37530;DHT22;23374;52.758;6.872;2022-12-20T16:48:12;10.60;99.90
37530;DHT22;23374;52.758;6.872;2022-12-20T16:50:32;10.60;99.90
37530;DHT22;23374;52.758;6.872;2022-12-20T16:52:52;10.60;99.90
37530;DHT22;23374;52.758;6.872;2022-12-20T16:55:20;10.60;99.90
37530;DHT22;23374;52.758;6.872;2022-12-20T16:57:41;10.60;99.90